Salem, New Jersey
Current Conditions -  °F | °C
As of 5:51 PM on Friday 28 Nov 2014 (Local Time) from KILG Reporting Station
Clear Clear  
Wind Chill: 26°   Ceiling: Unl
Heat Index: 32°   Visibility: 10mi
Dew Point: 15°   Wind: 6mph
Humidity: 50%   Direction: 290°WNW
Pressure: 30.28"   Gusts: NA
Location:  39.57°N, 75.47°W
Report Text: KILG 282251Z AUTO 29005KT 10SM CLR 00/M09 A3028 RMK AO2 SLP253 T00001094
Loading
Personal Weather Stations






























Interactive Weather Map New forecast layout! Learn more

10-Day Weather Forecast

Advertisements
Track Severe Weather on mobile